sensor_id;sensor_type;location;lat;lon;timestamp;pressure;altitude;pressure_sealevel;temperature;humidity
17450;BME280;8842;51.244;7.102;2023-02-17T00:04:37;99859.12;;;9.70;100.00
17450;BME280;8842;51.244;7.102;2023-02-17T00:14:52;99853.02;;;9.75;100.00
17450;BME280;8842;51.244;7.102;2023-02-17T00:25:07;99856.87;;;9.83;100.00
17450;BME280;8842;51.244;7.102;2023-02-17T00:35:22;99847.38;;;9.86;100.00
17450;BME280;8842;51.244;7.102;2023-02-17T00:45:38;99838.20;;;9.97;100.00
17450;BME280;8842;51.244;7.102;2023-02-17T00:55:54;99845.16;;;10.05;100.00
17450;BME280;8842;51.244;7.102;2023-02-17T01:06:14;99836.42;;;10.10;100.00
17450;BME280;8842;51.244;7.102;2023-02-17T01:16:35;99820.19;;;10.15;100.00
17450;BME280;8842;51.244;7.102;2023-02-17T01:26:54;99809.89;;;10.23;100.00
17450;BME280;8842;51.244;7.102;2023-02-17T01:47:36;99789.77;;;10.26;100.00
17450;BME280;8842;51.244;7.102;2023-02-17T02:03:08;99776.39;;;10.28;100.00
17450;BME280;8842;51.244;7.102;2023-02-17T02:18:48;99764.16;;;10.38;100.00
17450;BME280;8842;51.244;7.102;2023-02-17T02:34:59;99745.00;;;10.27;100.00
17450;BME280;8842;51.244;7.102;2023-02-17T02:45:18;99756.19;;;10.38;100.00
17450;BME280;8842;51.244;7.102;2023-02-17T02:55:47;99742.02;;;10.32;100.00
17450;BME280;8842;51.244;7.102;2023-02-17T03:06:08;99726.74;;;10.53;100.00
17450;BME280;8842;51.244;7.102;2023-02-17T03:16:27;99722.23;;;10.48;100.00
17450;BME280;8842;51.244;7.102;2023-02-17T03:26:46;99717.78;;;10.49;100.00
17450;BME280;8842;51.244;7.102;2023-02-17T03:37:02;99717.92;;;10.53;100.00
17450;BME280;8842;51.244;7.102;2023-02-17T03:47:18;99724.00;;;10.60;100.00
17450;BME280;8842;51.244;7.102;2023-02-17T03:57:34;99714.73;;;10.48;100.00
17450;BME280;8842;51.244;7.102;2023-02-17T04:07:50;99707.43;;;10.57;100.00
17450;BME280;8842;51.244;7.102;2023-02-17T04:23:18;99731.88;;;10.67;100.00
17450;BME280;8842;51.244;7.102;2023-02-17T04:33:36;99732.83;;;10.61;100.00
17450;BME280;8842;51.244;7.102;2023-02-17T04:49:10;99740.09;;;10.70;100.00
17450;BME280;8842;51.244;7.102;2023-02-17T04:59:26;99721.14;;;10.69;100.00
17450;BME280;8842;51.244;7.102;2023-02-17T05:09:41;99714.64;;;10.73;100.00
17450;BME280;8842;51.244;7.102;2023-02-17T05:19:59;99705.50;;;10.77;100.00
17450;BME280;8842;51.244;7.102;2023-02-17T05:40:33;99720.61;;;10.82;100.00
17450;BME280;8842;51.244;7.102;2023-02-17T05:50:48;99705.07;;;10.88;100.00
17450;BME280;8842;51.244;7.102;2023-02-17T06:01:08;99711.08;;;10.85;100.00
17450;BME280;8842;51.244;7.102;2023-02-17T06:16:38;99707.80;;;11.05;100.00
17450;BME280;8842;51.244;7.102;2023-02-17T06:21:42;99712.58;;;10.89;100.00
17450;BME280;8842;51.244;7.102;2023-02-17T06:31:57;99701.73;;;10.97;100.00
17450;BME280;8842;51.244;7.102;2023-02-17T06:47:26;99711.78;;;10.99;100.00
17450;BME280;8842;51.244;7.102;2023-02-17T06:57:41;99706.31;;;11.01;100.00
17450;BME280;8842;51.244;7.102;2023-02-17T07:02:45;99706.94;;;10.99;100.00
17450;BME280;8842;51.244;7.102;2023-02-17T07:07:49;99722.55;;;11.09;100.00
17450;BME280;8842;51.244;7.102;2023-02-17T07:18:06;99711.11;;;11.14;100.00
17450;BME280;8842;51.244;7.102;2023-02-17T07:28:21;99704.88;;;11.02;100.00
17450;BME280;8842;51.244;7.102;2023-02-17T07:38:38;99722.89;;;11.04;100.00
17450;BME280;8842;51.244;7.102;2023-02-17T07:54:07;99722.44;;;11.10;100.00
17450;BME280;8842;51.244;7.102;2023-02-17T08:04:23;99712.84;;;11.26;100.00
17450;BME280;8842;51.244;7.102;2023-02-17T08:14:39;99701.98;;;11.29;100.00
17450;BME280;8842;51.244;7.102;2023-02-17T08:19:43;99716.14;;;11.35;100.00
17450;BME280;8842;51.244;7.102;2023-02-17T08:29:58;99710.44;;;11.34;100.00
17450;BME280;8842;51.244;7.102;2023-02-17T08:40:14;99726.68;;;11.53;100.00
17450;BME280;8842;51.244;7.102;2023-02-17T08:45:17;99717.25;;;11.49;100.00
17450;BME280;8842;51.244;7.102;2023-02-17T08:50:22;99717.13;;;11.56;100.00
17450;BME280;8842;51.244;7.102;2023-02-17T09:00:38;99717.09;;;11.74;100.00
17450;BME280;8842;51.244;7.102;2023-02-17T09:10:55;99700.78;;;11.89;100.00
17450;BME280;8842;51.244;7.102;2023-02-17T09:15:59;99708.66;;;11.91;100.00
17450;BME280;8842;51.244;7.102;2023-02-17T09:26:18;99714.45;;;12.07;100.00
17450;BME280;8842;51.244;7.102;2023-02-17T09:36:39;99719.30;;;12.30;100.00
17450;BME280;8842;51.244;7.102;2023-02-17T09:47:00;99737.45;;;12.41;100.00
17450;BME280;8842;51.244;7.102;2023-02-17T09:57:22;99731.48;;;12.65;100.00
17450;BME280;8842;51.244;7.102;2023-02-17T10:07:44;99728.30;;;12.77;100.00
17450;BME280;8842;51.244;7.102;2023-02-17T10:23:19;99739.16;;;13.07;100.00
17450;BME280;8842;51.244;7.102;2023-02-17T10:33:47;99738.14;;;13.19;100.00
17450;BME280;8842;51.244;7.102;2023-02-17T10:44:06;99733.95;;;13.31;100.00
17450;BME280;8842;51.244;7.102;2023-02-17T10:54:28;99748.80;;;13.45;100.00
17450;BME280;8842;51.244;7.102;2023-02-17T10:59:36;99745.19;;;13.40;100.00
17450;BME280;8842;51.244;7.102;2023-02-17T11:04:42;99733.14;;;13.46;100.00
17450;BME280;8842;51.244;7.102;2023-02-17T11:09:48;99714.72;;;13.43;100.00
17450;BME280;8842;51.244;7.102;2023-02-17T11:14:53;99724.05;;;13.48;100.00
17450;BME280;8842;51.244;7.102;2023-02-17T11:20:00;99725.22;;;13.55;100.00
17450;BME280;8842;51.244;7.102;2023-02-17T11:30:34;99709.67;;;13.75;100.00
17450;BME280;8842;51.244;7.102;2023-02-17T11:40:59;99699.23;;;13.78;100.00
17450;BME280;8842;51.244;7.102;2023-02-17T11:51:28;99689.39;;;13.93;100.00
17450;BME280;8842;51.244;7.102;2023-02-17T12:02:03;99688.86;;;13.99;100.00
17450;BME280;8842;51.244;7.102;2023-02-17T12:12:41;99688.80;;;14.05;100.00
17450;BME280;8842;51.244;7.102;2023-02-17T12:23:02;99681.20;;;14.00;100.00
17450;BME280;8842;51.244;7.102;2023-02-17T12:33:42;99676.77;;;13.95;100.00
17450;BME280;8842;51.244;7.102;2023-02-17T12:38:48;99666.03;;;13.86;100.00
17450;BME280;8842;51.244;7.102;2023-02-17T12:43:55;99663.89;;;13.95;100.00
17450;BME280;8842;51.244;7.102;2023-02-17T12:59:33;99664.89;;;14.19;100.00
17450;BME280;8842;51.244;7.102;2023-02-17T13:09:49;99642.19;;;14.19;100.00
17450;BME280;8842;51.244;7.102;2023-02-17T13:20:24;99645.58;;;14.21;100.00
17450;BME280;8842;51.244;7.102;2023-02-17T13:30:43;99655.97;;;14.29;100.00
17450;BME280;8842;51.244;7.102;2023-02-17T13:35:47;99677.41;;;14.33;100.00
17450;BME280;8842;51.244;7.102;2023-02-17T13:46:05;99659.50;;;14.39;100.00
17450;BME280;8842;51.244;7.102;2023-02-17T13:56:35;99662.72;;;14.33;100.00
17450;BME280;8842;51.244;7.102;2023-02-17T14:06:51;99663.84;;;14.31;100.00
17450;BME280;8842;51.244;7.102;2023-02-17T14:17:28;99684.53;;;14.29;100.00
17450;BME280;8842;51.244;7.102;2023-02-17T14:27:47;99692.83;;;14.35;100.00
17450;BME280;8842;51.244;7.102;2023-02-17T14:38:09;99721.74;;;14.36;100.00
17450;BME280;8842;51.244;7.102;2023-02-17T14:48:25;99731.31;;;14.23;100.00
17450;BME280;8842;51.244;7.102;2023-02-17T14:58:41;99752.91;;;14.05;100.00
17450;BME280;8842;51.244;7.102;2023-02-17T15:08:57;99749.48;;;13.93;100.00
17450;BME280;8842;51.244;7.102;2023-02-17T15:14:03;99759.48;;;13.86;100.00
17450;BME280;8842;51.244;7.102;2023-02-17T15:24:23;99752.13;;;13.78;100.00
17450;BME280;8842;51.244;7.102;2023-02-17T15:34:39;99761.38;;;13.54;100.00
17450;BME280;8842;51.244;7.102;2023-02-17T15:44:56;99781.99;;;13.20;100.00
17450;BME280;8842;51.244;7.102;2023-02-17T15:55:11;99800.96;;;12.90;100.00
17450;BME280;8842;51.244;7.102;2023-02-17T16:05:29;99812.97;;;12.84;100.00
17450;BME280;8842;51.244;7.102;2023-02-17T16:10:33;99841.45;;;12.67;100.00
17450;BME280;8842;51.244;7.102;2023-02-17T16:20:50;99829.09;;;12.55;100.00
17450;BME280;8842;51.244;7.102;2023-02-17T16:31:09;99838.50;;;12.15;100.00
17450;BME280;8842;51.244;7.102;2023-02-17T16:41:26;99842.38;;;12.17;100.00
17450;BME280;8842;51.244;7.102;2023-02-17T16:51:41;99868.89;;;12.18;100.00
17450;BME280;8842;51.244;7.102;2023-02-17T17:01:56;99880.63;;;12.16;100.00
17450;BME280;8842;51.244;7.102;2023-02-17T17:12:13;99885.14;;;12.32;100.00
17450;BME280;8842;51.244;7.102;2023-02-17T17:27:42;99914.44;;;12.32;100.00
17450;BME280;8842;51.244;7.102;2023-02-17T17:38:00;99934.64;;;12.23;100.00
17450;BME280;8842;51.244;7.102;2023-02-17T17:53:27;99954.15;;;12.29;100.00
17450;BME280;8842;51.244;7.102;2023-02-17T18:03:43;99956.11;;;12.38;100.00
17450;BME280;8842;51.244;7.102;2023-02-17T18:14:00;99970.99;;;12.30;100.00
17450;BME280;8842;51.244;7.102;2023-02-17T18:19:06;99979.63;;;12.15;100.00
17450;BME280;8842;51.244;7.102;2023-02-17T18:34:33;99990.15;;;12.11;100.00
17450;BME280;8842;51.244;7.102;2023-02-17T18:44:49;99986.77;;;12.09;100.00
17450;BME280;8842;51.244;7.102;2023-02-17T18:49:54;100000.69;;;12.13;100.00
17450;BME280;8842;51.244;7.102;2023-02-17T19:00:13;100013.76;;;12.10;100.00
17450;BME280;8842;51.244;7.102;2023-02-17T19:10:32;100019.76;;;12.01;100.00
17450;BME280;8842;51.244;7.102;2023-02-17T19:20:48;100027.88;;;12.05;100.00
17450;BME280;8842;51.244;7.102;2023-02-17T19:31:06;100033.87;;;11.96;100.00
17450;BME280;8842;51.244;7.102;2023-02-17T19:41:24;100034.77;;;12.02;100.00
17450;BME280;8842;51.244;7.102;2023-02-17T19:56:52;100047.83;;;11.99;100.00
17450;BME280;8842;51.244;7.102;2023-02-17T20:07:07;100053.52;;;11.82;100.00
17450;BME280;8842;51.244;7.102;2023-02-17T20:17:23;100061.03;;;11.83;100.00
17450;BME280;8842;51.244;7.102;2023-02-17T20:27:38;100057.37;;;11.78;100.00
17450;BME280;8842;51.244;7.102;2023-02-17T20:43:09;100047.91;;;11.74;100.00
17450;BME280;8842;51.244;7.102;2023-02-17T20:53:27;100042.08;;;11.57;100.00
17450;BME280;8842;51.244;7.102;2023-02-17T21:03:43;100064.58;;;11.58;100.00
17450;BME280;8842;51.244;7.102;2023-02-17T21:14:01;100074.36;;;11.58;100.00
17450;BME280;8842;51.244;7.102;2023-02-17T21:24:18;100071.45;;;11.55;100.00
17450;BME280;8842;51.244;7.102;2023-02-17T21:34:36;100068.14;;;11.52;100.00
17450;BME280;8842;51.244;7.102;2023-02-17T21:44:51;100089.17;;;11.49;100.00
17450;BME280;8842;51.244;7.102;2023-02-17T21:55:07;100084.18;;;11.45;100.00
17450;BME280;8842;51.244;7.102;2023-02-17T22:05:30;100088.09;;;11.52;100.00
17450;BME280;8842;51.244;7.102;2023-02-17T22:15:56;100089.28;;;11.48;100.00
17450;BME280;8842;51.244;7.102;2023-02-17T22:26:14;100093.48;;;11.45;100.00
17450;BME280;8842;51.244;7.102;2023-02-17T22:36:34;100085.40;;;11.46;100.00
17450;BME280;8842;51.244;7.102;2023-02-17T22:46:50;100085.72;;;11.42;100.00
17450;BME280;8842;51.244;7.102;2023-02-17T22:57:06;100082.73;;;11.34;100.00
17450;BME280;8842;51.244;7.102;2023-02-17T23:07:21;100064.19;;;11.27;100.00
17450;BME280;8842;51.244;7.102;2023-02-17T23:17:40;100066.31;;;11.34;100.00
17450;BME280;8842;51.244;7.102;2023-02-17T23:28:10;100065.30;;;11.30;100.00
17450;BME280;8842;51.244;7.102;2023-02-17T23:38:26;100062.21;;;11.23;100.00
17450;BME280;8842;51.244;7.102;2023-02-17T23:48:42;100060.78;;;11.25;100.00
17450;BME280;8842;51.244;7.102;2023-02-17T23:58:58;100054.95;;;11.20;100.00
